KSLO

Details ICAO KSLO
Name SALEM LECKRONE
Region United States
Timezone America/Chicago (UTC-6.0)
Plans Departing 0
Arriving 2
Stats Elevation 573 ft / 175 m (AMSL)
Location 38.642872° -88.964186°
Runways 1
Magnetic Variation 2.463° W
Sunrise 2017-12-11 13:05:15 UTC / 2017-12-11 07:05:15 Local
Sunset 2017-12-11 22:36:07 UTC / 2017-12-11 16:36:07 Local
Advertisement - Login to hide

Runways

ID Width Length Bearing (true) Bearing (mag) Surface Threshold Offset Overrun Length
18 75 ft / 23 m 4,105 ft / 1,251 m 180.37° 182.83° Asphalt 0 ft / 0 m 0 ft / 0 m
36 75 ft / 23 m 4,105 ft / 1,251 m 0.37° 2.83° Asphalt 0 ft / 0 m 0 ft / 0 m

Map

Weather


0- 5 10 15 20 25 30 35+ Temperature / ° C

Clouds and Precipitation
Forecast for 2017-12-11 12:00 UTC. Updated 31 minutes ago

Ground ~20,000 ft ~40,000 ft Winds

METAR

KSLO 110935Z AUTO 17004KT 10SM CLR M03/M05 A3010 RMK AO2 T10341053

TAF

Not found

Frequencies

Recorded 118.52 MHz AWOS 3
Unicom 122.80 MHz CTAF/UNICOM
Warning: Do not use this data for real-world aviation or navigation. No guarantee of current accuracy is given.